Aérodrome :
LOGIN :

S'inscrire | Disclaimer

   EN    FR    IT 

 










Légende :    VFR   VFR Marginal   IFR   IFR Intensif   IFR Très Intensif
Visi : 
Plafond : 
>= 8 km
>= 3000ft
5 à 8 km
1000 à 3000 ft
1500m à 5 km
500 à 1000 ft
800 à 1500m
200 à 500 ft
< 800m
< 200 ft
Symboles :   Orages  Brouillard  Fortes neiges  Fortes précipitations  Vent > 20 kt
SIGMETs :   Divers  Orages  Givrage  Turbulence  Onde Orograph.  Cendres Volcan.







- Altitude de l'aérodrome : 74 ft
- Code IATA : EIN


EHEH - Eindhoven

DERNIER METAR :
  • 211825Z AUTO 34005KT 290V040 9999 BKN330 22/12 Q1022 BLU 33006KT CAVOK BECMG VRB03KT

METARs EXPIRÉS :
  • 211755Z AUTO 36007KT 300V040 9999 OVC320 22/12 Q1022 BLU 33006KT CAVOK BECMG VRB03KT
  • 211725Z AUTO 34006KT 250V050 9999 OVC330 23/12 Q1022 BLU 33006KT 9999 SCT045 BECMG VRB03KT
  • 211655Z AUTO 35007KT 280V050 9999 SCT044 BKN050 OVC240 23/12 Q1022 BLU 33006KT 9999 SCT045 BECMG VRB03KT
  • 211636Z AUTO 34007KT 290V030 9999 BKN045 OVC220 23/12 Q1022 BLU 33006KT 9999 SCT045 BECMG VRB03KT
  • 211625Z AUTO 34009KT 290V030 9999 FEW046 OVC210 23/12 Q1022 BLU 24007KT 9999 SCT040 SCT060 TEMPO 30008KT
  • 211555Z AUTO 34006KT 290V030 9999 FEW059 OVC210 23/12 Q1022 BLU 24007KT 9999 SCT040 SCT060 TEMPO 30008KT

TAF TAF EHEH
Valide du 21 à 18h jusqu'au 23 à 00h UTC


211708Z 2118/2224 34008KT CAVOK
BECMG 2119/2122 VRB03KT
BECMG 2203/2206 23006KT
PROB40
TEMPO 2209/2214 25010G20KT
BECMG 2217/2219 VRB03KT
Pas de NOTAMs connus pour ce terrain.



MET'MAP, la Météo Aéronautique d'un coup d'oeil ! - Copyright ORBIFLY Décembre 2007 - Disclaimer

ORBIFLY MET'MAP TEAM :

Programmation & Développement : Alexandra Zaïnal
Conception & Développement : Baudouin d'Aumeries
Co-Programmation & Développement : Marc-Olivier Méhu
Soutien technique & logistique : Manuel Goepfert

Contact : metmap@orbifly.com




SOURCES & CREDITS :

   NOAA